Time;durP1;ratioP1;P1;durP2;ratioP2;P2;SDS_P1;SDS_P2;PMS_P1;PMS_P2;Temp;Humidity;BMP_temperature;BMP_pressure;BME280_temperature;BME280_humidity;BME280_pressure;Samples;Min_cycle;Max_cycle;Signal;HPM_P1;HPM_P2
2022/04/11 00:01:37;;;;;;;4.68;3.70;;;6.50;99.90;;;;;;4974083;28;20199;-61
2022/04/11 00:04:06;;;;;;;3.83;3.45;;;6.50;99.90;;;;;;4973184;28;20206;-62
2022/04/11 00:06:35;;;;;;;4.80;3.60;;;6.50;99.90;;;;;;4974094;28;20219;-61
2022/04/11 00:09:03;;;;;;;7.00;3.58;;;6.40;99.90;;;;;;4974110;28;20254;-62
2022/04/11 00:11:31;;;;;;;4.38;3.97;;;6.40;99.90;;;;;;4973887;28;20215;-62
2022/04/11 00:13:59;;;;;;;5.00;3.30;;;6.40;99.90;;;;;;4973144;28;20238;-61
2022/04/11 00:16:27;;;;;;;3.70;3.40;;;6.50;99.90;;;;;;4973966;28;20751;-61
2022/04/11 00:18:55;;;;;;;3.38;2.97;;;6.50;99.90;;;;;;4973672;28;20218;-62
2022/04/11 00:21:23;;;;;;;4.68;3.50;;;6.50;99.90;;;;;;4973749;28;20613;-62
2022/04/11 00:23:52;;;;;;;5.20;3.95;;;6.60;99.90;;;;;;4971220;28;20226;-61
2022/04/11 00:26:20;;;;;;;4.60;4.20;;;6.50;99.90;;;;;;4973639;28;20250;-61
2022/04/11 00:28:48;;;;;;;5.80;3.13;;;6.40;99.90;;;;;;4973295;28;20254;-61
2022/04/11 00:31:16;;;;;;;4.70;3.63;;;6.50;99.90;;;;;;4973081;28;20246;-62
2022/04/11 00:33:44;;;;;;;4.30;3.90;;;6.50;99.90;;;;;;4972666;28;20202;-62
2022/04/11 00:36:12;;;;;;;3.95;3.40;;;6.60;99.90;;;;;;4973321;28;20644;-61
2022/04/11 00:38:40;;;;;;;6.00;4.10;;;6.60;99.90;;;;;;4973345;28;20652;-61
2022/04/11 00:41:09;;;;;;;4.60;3.92;;;6.50;99.90;;;;;;4935080;29;20204;-61
2022/04/11 00:43:38;;;;;;;3.40;3.10;;;6.50;99.90;;;;;;4934174;29;20591;-62
2022/04/11 00:46:08;;;;;;;4.68;3.65;;;6.60;99.90;;;;;;4934553;29;20250;-62
2022/04/11 00:48:36;;;;;;;4.07;3.67;;;6.60;99.90;;;;;;4934804;29;20207;-62
2022/04/11 00:51:09;;;;;;;4.22;3.83;;;6.60;99.90;;;;;;4934965;29;20204;-61
2022/04/11 00:53:39;;;;;;;4.32;3.30;;;6.60;99.90;;;;;;4934090;29;20670;-61
2022/04/11 00:56:12;;;;;;;5.13;4.10;;;6.60;99.90;;;;;;4934306;29;20272;-61
2022/04/11 00:58:41;;;;;;;3.85;3.55;;;6.60;99.90;;;;;;4934626;29;20259;-62
2022/04/11 01:01:09;;;;;;;5.38;4.30;;;6.60;99.90;;;;;;4934706;29;20677;-62
2022/04/11 01:03:39;;;;;;;4.38;3.97;;;6.60;99.90;;;;;;4933935;29;20216;-61
2022/04/11 01:06:07;;;;;;;3.67;3.38;;;6.60;99.90;;;;;;4934212;29;20227;-62
2022/04/11 01:08:36;;;;;;;3.92;3.53;;;6.60;99.90;;;;;;4934418;29;20236;-62
2022/04/11 01:11:04;;;;;;;4.20;3.10;;;6.60;99.90;;;;;;4934429;29;20677;-62
2022/04/11 01:13:34;;;;;;;4.22;3.38;;;6.70;99.90;;;;;;4933756;29;20251;-62
2022/04/11 01:16:03;;;;;;;4.68;3.65;;;6.70;99.90;;;;;;4934116;29;20216;-62
2022/04/11 01:18:34;;;;;;;3.30;3.10;;;6.70;99.90;;;;;;4934357;29;20219;-61
2022/04/11 01:21:02;;;;;;;5.03;4.63;;;6.60;99.90;;;;;;4934200;29;20247;-62
2022/04/11 01:23:31;;;;;;;5.80;3.83;;;6.60;99.90;;;;;;4933501;29;20200;-62
2022/04/11 01:25:59;;;;;;;6.65;4.25;;;6.70;99.90;;;;;;4934191;29;20226;-61
2022/04/11 01:28:27;;;;;;;4.60;4.20;;;6.60;99.90;;;;;;4934258;29;20192;-61
2022/04/11 01:30:56;;;;;;;4.00;3.75;;;6.60;99.90;;;;;;4934078;29;20279;-62
2022/04/11 01:33:27;;;;;;;4.15;3.70;;;6.60;99.90;;;;;;4933582;29;20283;-61
2022/04/11 01:35:55;;;;;;;4.43;4.03;;;6.70;99.90;;;;;;4933675;29;20212;-61
2022/04/11 01:38:23;;;;;;;4.68;4.00;;;6.70;99.90;;;;;;4934113;29;20244;-61
2022/04/11 01:40:54;;;;;;;4.20;3.90;;;6.60;99.90;;;;;;4968563;28;20678;-61
2022/04/11 01:43:23;;;;;;;4.57;4.07;;;6.70;99.90;;;;;;4971264;28;20232;-62
2022/04/11 01:45:51;;;;;;;4.40;4.00;;;6.60;99.90;;;;;;4972242;28;20242;-62
2022/04/11 01:48:19;;;;;;;4.22;3.90;;;6.60;99.90;;;;;;4972366;28;20477;-62
2022/04/11 01:50:47;;;;;;;4.30;3.90;;;6.60;99.90;;;;;;4977022;28;20225;-62
2022/04/11 01:53:17;;;;;;;4.68;4.20;;;6.60;99.90;;;;;;4987936;28;20241;-63
2022/04/11 01:55:45;;;;;;;5.72;4.60;;;6.60;99.90;;;;;;4972170;28;20218;-64
2022/04/11 01:58:15;;;;;;;6.38;4.45;;;6.30;99.90;;;;;;4972332;28;20672;-63
2022/04/11 02:00:44;;;;;;;5.03;3.97;;;6.30;99.90;;;;;;4972097;28;20211;-63
2022/04/11 02:03:12;;;;;;;6.00;4.70;;;6.10;99.90;;;;;;4971346;28;20226;-62
2022/04/11 02:05:42;;;;;;;4.10;3.80;;;6.10;99.90;;;;;;4970141;28;20233;-62
2022/04/11 02:08:10;;;;;;;5.00;4.50;;;6.00;99.90;;;;;;4971364;28;20272;-62
2022/04/11 02:10:40;;;;;;;5.57;5.07;;;6.00;99.90;;;;;;4971829;28;20272;-62
2022/04/11 02:13:09;;;;;;;5.38;4.88;;;6.00;99.90;;;;;;4971352;28;20594;-62
2022/04/11 02:15:38;;;;;;;6.53;4.40;;;6.10;99.90;;;;;;4972068;28;20719;-62
2022/04/11 02:18:07;;;;;;;4.80;4.40;;;6.20;99.90;;;;;;4972044;28;20301;-61
2022/04/11 02:20:35;;;;;;;4.53;4.15;;;6.30;99.90;;;;;;4972088;28;20253;-61
2022/04/11 02:23:03;;;;;;;4.10;3.70;;;6.30;99.90;;;;;;4971338;28;20245;-62
2022/04/11 02:25:34;;;;;;;6.80;5.10;;;6.40;99.90;;;;;;4971865;28;20207;-61
2022/04/11 02:28:02;;;;;;;6.30;4.78;;;6.20;99.90;;;;;;4971799;28;20298;-62
2022/04/11 02:30:30;;;;;;;5.57;5.05;;;6.30;99.90;;;;;;4972032;28;20276;-62
2022/04/11 02:32:59;;;;;;;4.90;3.80;;;6.60;99.90;;;;;;4971226;28;20253;-61
2022/04/11 02:35:27;;;;;;;5.80;4.60;;;6.50;99.90;;;;;;4971897;28;20203;-62
2022/04/11 02:37:55;;;;;;;7.60;5.68;;;6.40;99.90;;;;;;4971899;28;20270;-62
2022/04/11 02:40:23;;;;;;;5.28;4.80;;;6.10;99.90;;;;;;4971705;28;20290;-62
2022/04/11 02:42:51;;;;;;;4.65;4.18;;;5.90;99.90;;;;;;4971516;28;20206;-62
2022/04/11 02:45:19;;;;;;;5.40;4.20;;;5.60;99.90;;;;;;4971362;28;20206;-62
2022/04/11 02:47:47;;;;;;;4.70;4.25;;;5.70;99.90;;;;;;4971955;28;20297;-61
2022/04/11 02:50:17;;;;;;;5.18;4.32;;;5.80;99.90;;;;;;4971800;28;20258;-61
2022/04/11 02:52:45;;;;;;;7.10;5.22;;;5.90;99.90;;;;;;4971226;28;20672;-62
2022/04/11 02:55:13;;;;;;;4.70;4.18;;;5.80;99.90;;;;;;4975072;28;20230;-62
2022/04/11 02:57:41;;;;;;;7.43;5.05;;;5.40;99.90;;;;;;4975287;28;20281;-61
2022/04/11 03:00:13;;;;;;;6.35;5.07;;;5.10;99.90;;;;;;4975057;28;20261;-62
2022/04/11 03:02:41;;;;;;;6.80;5.70;;;5.20;99.90;;;;;;4975210;28;20214;-62
2022/04/11 03:05:09;;;;;;;5.05;4.65;;;4.90;99.90;;;;;;4975797;28;20195;-62
2022/04/11 03:07:38;;;;;;;7.22;5.38;;;4.80;99.90;;;;;;4975855;28;20194;-61
2022/04/11 03:10:08;;;;;;;4.95;4.55;;;4.80;99.90;;;;;;4975702;28;20270;-62
2022/04/11 03:12:36;;;;;;;7.10;5.30;;;4.90;99.90;;;;;;4974685;28;20203;-62
2022/04/11 03:15:05;;;;;;;8.40;5.22;;;5.00;99.90;;;;;;4975001;28;20285;-61
2022/04/11 03:17:34;;;;;;;6.07;5.57;;;5.20;99.90;;;;;;4974962;28;20298;-62
2022/04/11 03:20:02;;;;;;;6.47;4.93;;;5.20;99.90;;;;;;4974522;28;20245;-62
2022/04/11 03:22:30;;;;;;;7.90;5.30;;;5.40;99.90;;;;;;4983731;28;20201;-62
2022/04/11 03:24:59;;;;;;;6.50;5.40;;;5.50;99.90;;;;;;4994138;28;20286;-62
2022/04/11 03:27:27;;;;;;;7.05;6.05;;;5.60;99.90;;;;;;4994414;28;20218;-62
2022/04/11 03:29:55;;;;;;;5.10;4.70;;;5.20;99.90;;;;;;4968228;28;20227;-62
2022/04/11 03:32:23;;;;;;;6.03;5.25;;;5.20;99.90;;;;;;4954642;28;20669;-62
2022/04/11 03:34:51;;;;;;;5.80;5.20;;;5.30;99.90;;;;;;4955402;28;20279;-62
2022/04/11 03:37:19;;;;;;;5.80;5.30;;;5.40;99.90;;;;;;4974424;28;20265;-62
2022/04/11 03:39:47;;;;;;;6.20;5.55;;;5.10;99.90;;;;;;5004987;23;20600;-61
2022/04/11 03:42:16;;;;;;;8.20;5.25;;;5.00;99.90;;;;;;4992298;28;20242;-61
2022/04/11 03:44:44;;;;;;;6.43;5.82;;;4.90;99.90;;;;;;4993762;28;20730;-61
2022/04/11 03:47:11;;;;;;;6.22;5.72;;;4.70;99.90;;;;;;4993565;28;20226;-60
2022/04/11 03:49:39;;;;;;;7.68;6.97;;;4.60;99.90;;;;;;5001537;28;20217;-61
2022/04/11 03:52:07;;;;;;;7.20;6.40;;;4.50;99.90;;;;;;5012427;28;20284;-61
2022/04/11 03:54:35;;;;;;;7.07;6.47;;;4.50;99.90;;;;;;5013367;28;20741;-61
2022/04/11 03:57:04;;;;;;;8.20;6.80;;;4.30;99.90;;;;;;5013001;28;20266;-61
2022/04/11 03:59:33;;;;;;;7.28;6.68;;;4.40;99.90;;;;;;5013005;28;20217;-61
2022/04/11 04:02:01;;;;;;;7.97;7.28;;;4.30;99.90;;;;;;5012348;28;20201;-60
2022/04/11 04:04:29;;;;;;;7.65;6.95;;;4.20;99.90;;;;;;5012518;28;20236;-61
2022/04/11 04:06:57;;;;;;;7.32;6.40;;;4.30;99.90;;;;;;5012894;28;20289;-61
2022/04/11 04:09:25;;;;;;;7.85;7.25;;;4.40;99.90;;;;;;5013050;28;20279;-61
2022/04/11 04:11:52;;;;;;;8.35;7.20;;;4.40;99.90;;;;;;5012849;28;20221;-61
2022/04/11 04:14:20;;;;;;;6.72;6.20;;;4.30;99.90;;;;;;5012398;28;20232;-61
2022/04/11 04:16:49;;;;;;;6.93;6.22;;;4.40;99.90;;;;;;5012698;28;20240;-61
2022/04/11 04:19:18;;;;;;;8.90;6.22;;;4.50;99.90;;;;;;5012609;28;20711;-60
2022/04/11 04:21:45;;;;;;;7.13;5.35;;;4.80;99.90;;;;;;5025868;28;20239;-61
2022/04/11 04:24:13;;;;;;;6.57;5.63;;;5.00;99.90;;;;;;5031833;28;20201;-61
2022/04/11 04:26:41;;;;;;;7.00;6.30;;;5.10;99.90;;;;;;5025606;28;20252;-61
2022/04/11 04:29:09;;;;;;;5.85;5.25;;;5.20;99.90;;;;;;5012646;28;20304;-61
2022/04/11 04:31:37;;;;;;;7.70;5.00;;;5.30;99.90;;;;;;5030960;28;20197;-60
2022/04/11 04:34:06;;;;;;;6.07;5.47;;;4.90;99.90;;;;;;5031650;28;20670;-59
2022/04/11 04:36:34;;;;;;;8.40;5.50;;;4.80;99.90;;;;;;5032326;28;20232;-61
2022/04/11 04:39:02;;;;;;;8.55;5.65;;;4.90;99.90;;;;;;5031804;28;20713;-61
2022/04/11 04:41:30;;;;;;;7.72;6.45;;;4.70;99.90;;;;;;5032169;28;20197;-61
2022/04/11 04:43:58;;;;;;;8.45;7.15;;;4.40;99.90;;;;;;5022215;28;20232;-61
2022/04/11 04:46:26;;;;;;;8.00;7.28;;;4.10;99.90;;;;;;5012166;28;20862;-60
2022/04/11 04:48:54;;;;;;;8.80;7.40;;;3.90;99.90;;;;;;5012229;28;20243;-60
2022/04/11 04:51:23;;;;;;;7.72;6.95;;;3.70;99.90;;;;;;5012338;28;20193;-60
2022/04/11 04:53:52;;;;;;;10.68;8.52;;;3.70;99.90;;;;;;5011425;28;20197;-60
2022/04/11 04:56:19;;;;;;;8.77;7.97;;;3.50;99.90;;;;;;5012053;28;20281;-61
2022/04/11 04:58:48;;;;;;;7.55;6.90;;;3.40;99.90;;;;;;5011742;28;20245;-60
2022/04/11 05:01:16;;;;;;;9.20;8.30;;;3.50;99.90;;;;;;5012154;28;20237;-61
2022/04/11 05:03:44;;;;;;;10.32;7.75;;;3.30;99.90;;;;;;5011514;28;20216;-61
2022/04/11 05:06:12;;;;;;;9.40;8.60;;;3.20;99.90;;;;;;5028843;28;20228;-61
2022/04/11 05:08:41;;;;;;;8.70;7.80;;;3.20;99.90;;;;;;5031699;28;20720;-61
2022/04/11 05:11:09;;;;;;;9.02;8.02;;;3.20;99.90;;;;;;5006379;28;20283;-60
2022/04/11 05:13:38;;;;;;;9.68;8.70;;;3.20;99.90;;;;;;4999453;28;20217;-60
2022/04/11 05:16:06;;;;;;;9.15;7.15;;;3.20;99.90;;;;;;4997699;28;20228;-60
2022/04/11 05:18:34;;;;;;;9.23;8.10;;;3.20;99.90;;;;;;4998539;28;20221;-60
2022/04/11 05:21:02;;;;;;;12.38;8.73;;;3.20;99.90;;;;;;4998087;28;20217;-60
2022/04/11 05:23:30;;;;;;;11.23;9.00;;;3.20;99.90;;;;;;4997658;28;20224;-59
2022/04/11 05:25:59;;;;;;;10.25;8.55;;;3.30;99.90;;;;;;4996995;28;20216;-59
2022/04/11 05:28:28;;;;;;;8.10;7.40;;;3.40;99.90;;;;;;4996961;28;20228;-59
2022/04/11 05:30:55;;;;;;;10.10;9.20;;;3.30;99.90;;;;;;4998479;28;20793;-59
2022/04/11 05:33:23;;;;;;;9.35;8.40;;;3.40;99.90;;;;;;4996868;28;20205;-60
2022/04/11 05:35:52;;;;;;;10.43;7.75;;;3.30;99.90;;;;;;4996795;28;20209;-60
2022/04/11 05:38:20;;;;;;;9.00;8.10;;;3.30;99.90;;;;;;4998382;28;20223;-59
2022/04/11 05:40:48;;;;;;;8.27;7.47;;;3.30;99.90;;;;;;4997612;28;21092;-60
2022/04/11 05:43:21;;;;;;;8.48;7.63;;;3.40;99.90;;;;;;4997848;28;20208;-60
2022/04/11 05:45:49;;;;;;;11.05;8.88;;;3.60;99.90;;;;;;4996848;28;20283;-60
2022/04/11 05:48:17;;;;;;;8.90;7.55;;;3.60;99.90;;;;;;4998090;28;20205;-58
2022/04/11 05:50:45;;;;;;;8.77;7.97;;;4.00;99.90;;;;;;4998111;28;20249;-59
2022/04/11 05:53:13;;;;;;;8.48;7.78;;;4.10;99.90;;;;;;4997580;28;20292;-59
2022/04/11 05:55:41;;;;;;;10.57;7.30;;;4.20;99.90;;;;;;4996470;28;20279;-59
2022/04/11 05:58:09;;;;;;;9.02;7.72;;;4.30;99.90;;;;;;4997978;28;20263;-58
2022/04/11 06:00:38;;;;;;;8.57;7.15;;;4.50;99.90;;;;;;4998076;28;21006;-60
2022/04/11 06:03:06;;;;;;;10.13;7.15;;;4.60;99.90;;;;;;4997601;28;20494;-61
2022/04/11 06:05:36;;;;;;;9.02;7.15;;;4.80;99.90;;;;;;4996439;28;20268;-61
2022/04/11 06:08:05;;;;;;;8.45;7.63;;;4.90;99.90;;;;;;5028114;28;20236;-61
2022/04/11 06:10:33;;;;;;;8.82;7.32;;;5.10;99.90;;;;;;5011224;28;20300;-61
2022/04/11 06:13:00;;;;;;;10.80;7.53;;;5.10;99.90;;;;;;5010491;28;20221;-61
2022/04/11 06:15:28;;;;;;;10.30;8.20;;;5.10;99.90;;;;;;5024307;28;20235;-61
2022/04/11 06:17:58;;;;;;;9.63;8.63;;;5.20;99.90;;;;;;5030756;28;20608;-61
2022/04/11 06:20:26;;;;;;;9.35;6.68;;;5.30;99.90;;;;;;5030757;28;20259;-61
2022/04/11 06:22:53;;;;;;;8.68;6.60;;;5.40;99.90;;;;;;5017446;28;20803;-60
2022/04/11 06:25:21;;;;;;;9.70;7.13;;;5.40;99.90;;;;;;5007288;28;20233;-61
2022/04/11 06:27:49;;;;;;;9.60;8.40;;;5.50;99.90;;;;;;5010693;28;20236;-61
2022/04/11 06:30:17;;;;;;;8.98;7.32;;;5.50;99.90;;;;;;5013398;28;20611;-61
2022/04/11 06:32:45;;;;;;;7.85;7.05;;;5.60;99.90;;;;;;5013813;28;20201;-61
2022/04/11 06:35:14;;;;;;;8.82;7.72;;;5.60;99.90;;;;;;5014765;28;20193;-61
2022/04/11 06:37:42;;;;;;;8.05;7.32;;;5.80;99.90;;;;;;5014674;28;20236;-61
2022/04/11 06:40:11;;;;;;;10.63;6.88;;;5.90;99.90;;;;;;5014204;28;20709;-61
2022/04/11 06:42:39;;;;;;;9.30;6.20;;;5.90;99.90;;;;;;5012534;28;20626;-61
2022/04/11 06:45:09;;;;;;;8.95;6.88;;;6.00;99.90;;;;;;5014766;28;20235;-61
2022/04/11 06:47:37;;;;;;;7.15;6.45;;;6.10;99.90;;;;;;5014405;28;20263;-61
2022/04/11 06:50:05;;;;;;;7.63;6.55;;;6.20;99.90;;;;;;5014470;28;20679;-61
2022/04/11 06:52:34;;;;;;;6.85;6.05;;;6.30;99.90;;;;;;5013698;28;20737;-61
2022/04/11 06:55:02;;;;;;;11.02;7.00;;;6.30;99.90;;;;;;5014620;28;20208;-60
2022/04/11 06:57:30;;;;;;;5.90;5.40;;;6.50;99.90;;;;;;5014134;28;20257;-62
2022/04/11 06:59:58;;;;;;;7.25;6.55;;;6.60;99.90;;;;;;5014232;28;20311;-61
2022/04/11 07:02:26;;;;;;;6.43;5.82;;;6.60;99.90;;;;;;5013687;28;20206;-61
2022/04/11 07:04:54;;;;;;;7.13;6.05;;;6.50;99.90;;;;;;5014127;28;20231;-61
2022/04/11 07:07:22;;;;;;;7.38;6.03;;;6.70;99.90;;;;;;5013728;28;20666;-61
2022/04/11 07:09:51;;;;;;;7.63;6.30;;;6.80;99.90;;;;;;5014224;28;20248;-61
2022/04/11 07:12:19;;;;;;;6.63;5.78;;;7.00;99.90;;;;;;5013327;28;20201;-61
2022/04/11 07:14:47;;;;;;;6.00;5.45;;;7.10;99.90;;;;;;5013945;28;20228;-61
2022/04/11 07:17:15;;;;;;;6.40;5.88;;;7.10;99.90;;;;;;5013774;28;20671;-61
2022/04/11 07:19:43;;;;;;;9.82;6.60;;;7.20;99.90;;;;;;5013646;28;20253;-61
2022/04/11 07:22:10;;;;;;;6.65;6.05;;;7.30;99.90;;;;;;5013060;28;20221;-62
2022/04/11 07:24:38;;;;;;;7.00;5.50;;;7.40;99.90;;;;;;5013927;28;20256;-61
2022/04/11 07:27:08;;;;;;;9.88;6.32;;;7.50;99.90;;;;;;5013579;28;20189;-61
2022/04/11 07:29:35;;;;;;;7.05;6.35;;;7.70;99.90;;;;;;5013729;28;20236;-62
2022/04/11 07:32:04;;;;;;;6.93;5.60;;;7.90;99.90;;;;;;5013102;28;20220;-62
2022/04/11 07:34:32;;;;;;;9.75;6.32;;;8.00;99.90;;;;;;5013500;28;20237;-61
2022/04/11 07:37:00;;;;;;;6.75;5.68;;;8.00;99.90;;;;;;5013453;28;20601;-61
2022/04/11 07:39:29;;;;;;;6.80;6.20;;;8.10;99.90;;;;;;5012274;28;20265;-61
2022/04/11 07:41:57;;;;;;;11.02;7.13;;;8.20;99.90;;;;;;5013077;28;20256;-61
2022/04/11 07:44:27;;;;;;;9.25;5.90;;;8.30;99.90;;;;;;5012301;28;20197;-61
2022/04/11 07:46:54;;;;;;;7.20;6.50;;;8.50;99.90;;;;;;5013335;28;20268;-61
2022/04/11 07:49:22;;;;;;;7.30;6.22;;;8.70;99.90;;;;;;5013487;28;20213;-61
2022/04/11 07:51:50;;;;;;;7.80;5.38;;;8.90;99.90;;;;;;5013421;28;20209;-61
2022/04/11 07:54:18;;;;;;;9.88;6.00;;;9.10;99.90;;;;;;5012584;28;20241;-62
2022/04/11 07:56:46;;;;;;;7.30;5.50;;;9.20;99.90;;;;;;5012995;28;20198;-62
2022/04/11 07:59:15;;;;;;;6.72;6.13;;;9.40;99.90;;;;;;5013036;28;20304;-61
2022/04/11 08:01:45;;;;;;;11.43;6.10;;;9.60;99.90;;;;;;5013114;28;20725;-62
2022/04/11 08:04:13;;;;;;;6.57;4.97;;;9.70;99.90;;;;;;5012483;28;20571;-61
2022/04/11 08:06:40;;;;;;;7.00;5.72;;;9.80;99.90;;;;;;5013019;28;20482;-62
2022/04/11 08:09:08;;;;;;;6.70;5.00;;;10.00;99.90;;;;;;5012900;28;20232;-62
2022/04/11 08:11:36;;;;;;;5.60;5.10;;;10.00;99.90;;;;;;5012828;28;20221;-62
2022/04/11 08:14:04;;;;;;;5.60;4.88;;;10.20;99.90;;;;;;5012240;28;20193;-62
2022/04/11 08:16:32;;;;;;;7.38;5.65;;;10.40;99.90;;;;;;5012823;28;20200;-63
2022/04/11 08:19:01;;;;;;;5.80;4.53;;;10.50;99.90;;;;;;5012548;28;20200;-62
2022/04/11 08:21:29;;;;;;;5.60;4.93;;;10.60;99.90;;;;;;5012810;28;20252;-61
2022/04/11 08:23:57;;;;;;;6.50;4.57;;;10.80;99.90;;;;;;5012152;28;20201;-62
2022/04/11 08:26:25;;;;;;;4.68;4.05;;;11.00;99.90;;;;;;5013035;28;20221;-62
2022/04/11 08:28:53;;;;;;;5.68;4.72;;;11.10;99.90;;;;;;5012695;28;20193;-62
2022/04/11 08:31:21;;;;;;;6.45;4.05;;;11.20;99.90;;;;;;5012641;28;20350;-62
2022/04/11 08:33:49;;;;;;;5.70;5.00;;;11.50;99.90;;;;;;5011919;28;20212;-61
2022/04/11 08:36:19;;;;;;;5.20;4.70;;;11.70;99.90;;;;;;5012502;28;20354;-62
2022/04/11 08:38:47;;;;;;;5.82;4.72;;;11.80;99.90;;;;;;5012048;28;20587;-62
2022/04/11 08:41:18;;;;;;;4.80;4.35;;;11.90;99.90;;;;;;4992886;28;20236;-62
2022/04/11 08:43:46;;;;;;;5.18;4.75;;;12.00;99.90;;;;;;4991472;28;20234;-62
2022/04/11 08:46:17;;;;;;;6.65;4.55;;;12.30;99.90;;;;;;4992730;28;20237;-62
2022/04/11 08:48:45;;;;;;;5.10;3.97;;;12.30;99.90;;;;;;4992289;28;20229;-62
2022/04/11 08:51:13;;;;;;;5.90;5.03;;;12.50;99.90;;;;;;4992445;28;20194;-62
2022/04/11 08:53:43;;;;;;;7.68;4.43;;;12.70;99.90;;;;;;4992146;28;20619;-62
2022/04/11 08:56:11;;;;;;;5.60;3.88;;;13.00;99.90;;;;;;4992497;28;20221;-62
2022/04/11 08:58:39;;;;;;;4.25;3.83;;;13.10;99.90;;;;;;4992293;28;20197;-62
2022/04/11 09:01:07;;;;;;;4.30;3.90;;;13.30;99.90;;;;;;4992147;28;20278;-62
2022/04/11 09:03:35;;;;;;;6.07;3.13;;;13.50;99.90;;;;;;4991787;28;20248;-62
2022/04/11 09:06:06;;;;;;;4.75;3.20;;;13.70;98.20;;;;;;4992337;28;20221;-62
2022/04/11 09:08:42;;;;;;;4.22;2.42;;;13.80;97.30;;;;;;4992461;28;20550;-62
2022/04/11 09:11:11;;;;;;;4.82;3.15;;;13.90;96.40;;;;;;4992869;28;20206;-62
2022/04/11 09:13:51;;;;;;;2.72;2.53;;;13.90;95.80;;;;;;4991436;28;20236;-62
2022/04/11 09:16:19;;;;;;;3.58;2.67;;;13.90;95.60;;;;;;4992493;28;20225;-62
2022/04/11 09:18:49;;;;;;;4.10;3.22;;;14.20;96.20;;;;;;4992015;28;20190;-62
2022/04/11 09:21:17;;;;;;;3.00;2.67;;;14.40;94.90;;;;;;4992227;28;20240;-63
2022/04/11 09:23:47;;;;;;;5.50;2.70;;;14.50;93.90;;;;;;4991961;28;20186;-62
2022/04/11 09:26:17;;;;;;;3.40;3.10;;;14.60;93.80;;;;;;4991944;28;20194;-62
2022/04/11 09:28:44;;;;;;;3.95;2.97;;;14.60;94.30;;;;;;4991861;28;20194;-63
2022/04/11 09:31:12;;;;;;;3.95;2.85;;;14.80;94.20;;;;;;4991961;28;20535;-63
2022/04/11 09:33:41;;;;;;;3.85;2.40;;;15.00;93.50;;;;;;4991308;28;20691;-62
2022/04/11 09:36:08;;;;;;;2.20;2.00;;;15.10;93.90;;;;;;4991861;28;20253;-63
2022/04/11 09:38:37;;;;;;;2.08;1.45;;;15.30;92.50;;;;;;4991635;28;20198;-62
2022/04/11 09:41:07;;;;;;;2.47;1.75;;;15.60;91.50;;;;;;5048057;23;20236;-62
2022/04/11 09:43:35;;;;;;;3.50;1.98;;;16.00;91.30;;;;;;5028693;28;20612;-62
2022/04/11 09:46:04;;;;;;;3.22;1.67;;;16.30;89.70;;;;;;5031118;28;20196;-61
2022/04/11 09:48:35;;;;;;;2.30;1.60;;;16.60;90.20;;;;;;5031185;28;20339;-62
2022/04/11 09:51:10;;;;;;;3.17;1.98;;;16.90;88.40;;;;;;5031386;28;20213;-63
2022/04/11 09:53:38;;;;;;;4.05;2.30;;;16.90;86.20;;;;;;5030498;28;20228;-62
2022/04/11 09:56:09;;;;;;;2.03;1.70;;;17.20;84.80;;;;;;5031310;28;20571;-62
2022/04/11 09:58:38;;;;;;;1.90;1.50;;;17.00;82.50;;;;;;5031276;28;20669;-63
2022/04/11 10:01:07;;;;;;;2.58;1.48;;;16.90;81.00;;;;;;5030724;28;20302;-63
2022/04/11 10:03:36;;;;;;;4.00;1.45;;;16.90;82.50;;;;;;5031903;28;20188;-62
2022/04/11 10:06:05;;;;;;;2.65;1.70;;;16.90;79.30;;;;;;5035078;28;20193;-62
2022/04/11 10:08:33;;;;;;;1.60;1.35;;;16.90;78.00;;;;;;5035099;28;20258;-62
2022/04/11 10:11:02;;;;;;;2.38;1.50;;;16.70;79.20;;;;;;5034753;28;20262;-63
2022/04/11 10:13:31;;;;;;;1.48;1.30;;;16.70;77.20;;;;;;5034383;28;20200;-63
2022/04/11 10:15:59;;;;;;;2.22;1.70;;;16.80;81.40;;;;;;5035016;28;20267;-62
2022/04/11 10:18:29;;;;;;;2.72;1.80;;;16.80;81.70;;;;;;5034824;28;20588;-63
2022/04/11 10:20:59;;;;;;;5.80;1.63;;;17.20;80.60;;;;;;5034805;28;20220;-62
2022/04/11 10:23:56;;;;;;;2.88;1.80;;;17.20;77.60;;;;;;5034027;28;20566;-62
2022/04/11 10:26:30;;;;;;;5.90;2.08;;;17.00;77.60;;;;;;5034697;28;20200;-63
2022/04/11 10:29:00;;;;;;;2.40;1.33;;;17.10;77.70;;;;;;5034526;28;20665;-62
2022/04/11 10:31:37;;;;;;;2.85;1.50;;;17.50;78.10;;;;;;5034597;28;20212;-63
2022/04/11 10:34:05;;;;;;;1.70;1.48;;;17.60;78.10;;;;;;5034032;28;20207;-64
2022/04/11 10:36:57;;;;;;;2.40;1.83;;;17.80;75.50;;;;;;5034599;28;20669;-63
2022/04/11 10:39:25;;;;;;;3.00;1.70;;;17.70;75.80;;;;;;5034144;28;20196;-62
2022/04/11 10:42:10;;;;;;;1.83;1.60;;;17.90;76.20;;;;;;5034711;28;20220;-63
2022/04/11 10:44:40;;;;;;;3.90;1.67;;;17.90;77.20;;;;;;5032944;28;20255;-62
2022/04/11 10:47:31;;;;;;;3.25;1.92;;;18.00;74.00;;;;;;5034430;28;20247;-63
2022/04/11 10:50:36;;;;;;;2.60;1.90;;;18.30;75.10;;;;;;5034120;28;20270;-63
2022/04/11 10:53:10;;;;;;;3.97;1.75;;;18.20;74.20;;;;;;5033605;28;20783;-63
2022/04/11 10:55:58;;;;;;;2.90;1.60;;;18.90;74.20;;;;;;5034121;28;20227;-63
2022/04/11 10:58:41;;;;;;;2.60;1.75;;;19.00;73.30;;;;;;5034185;28;20196;-62
2022/04/11 11:01:11;;;;;;;3.92;1.77;;;19.10;72.70;;;;;;5033844;28;20262;-62
2022/04/11 11:03:40;;;;;;;1.85;1.25;;;18.90;71.30;;;;;;5033346;28;20203;-63
2022/04/11 11:06:23;;;;;;;3.30;1.70;;;18.70;70.60;;;;;;5034351;28;20278;-63
2022/04/11 11:08:51;;;;;;;5.18;1.90;;;18.80;69.80;;;;;;5033830;28;20197;-62
2022/04/11 11:11:22;;;;;;;2.53;1.40;;;19.00;70.50;;;;;;5033820;28;20205;-63
2022/04/11 11:13:51;;;;;;;2.60;1.70;;;18.90;69.60;;;;;;5032833;28;20196;-63
2022/04/11 11:16:37;;;;;;;2.10;1.45;;;18.60;69.60;;;;;;5033852;28;20280;-63
2022/04/11 11:19:20;;;;;;;2.25;1.50;;;18.60;71.30;;;;;;5033431;28;20271;-62
2022/04/11 11:22:04;;;;;;;2.85;1.42;;;18.90;69.50;;;;;;5033667;28;20223;-62
2022/04/11 11:24:32;;;;;;;1.60;1.50;;;19.20;70.10;;;;;;5033680;28;20626;-63
2022/04/11 11:27:05;;;;;;;3.15;1.88;;;19.60;70.20;;;;;;5033685;28;20255;-63
2022/04/11 11:29:40;;;;;;;2.00;1.80;;;19.60;69.10;;;;;;5033315;28;20228;-62
2022/04/11 11:32:12;;;;;;;3.20;1.88;;;20.00;70.40;;;;;;5033266;28;20473;-63
2022/04/11 11:34:42;;;;;;;1.92;1.27;;;20.00;67.00;;;;;;5033509;28;20413;-63
2022/04/11 11:37:12;;;;;;;1.60;1.17;;;20.10;68.50;;;;;;5033581;28;20192;-63
2022/04/11 11:39:42;;;;;;;4.15;1.40;;;20.10;67.70;;;;;;5032950;28;20679;-62
2022/04/11 11:42:14;;;;;;;2.28;1.42;;;19.80;68.40;;;;;;5031609;28;20212;-62
2022/04/11 11:44:45;;;;;;;1.50;1.40;;;19.50;66.90;;;;;;5031399;28;20598;-63
2022/04/11 11:47:15;;;;;;;4.63;1.70;;;19.50;66.70;;;;;;5032183;28;20200;-62
2022/04/11 11:49:45;;;;;;;2.60;1.65;;;19.20;65.60;;;;;;5031807;28;20212;-63
2022/04/11 11:52:14;;;;;;;1.55;1.00;;;19.20;65.30;;;;;;5031466;28;20251;-62
2022/04/11 11:54:44;;;;;;;2.88;1.60;;;19.30;67.80;;;;;;5032094;28;20215;-63
2022/04/11 11:57:14;;;;;;;1.30;1.20;;;19.70;64.30;;;;;;5031967;28;20231;-62
2022/04/11 11:59:54;;;;;;;2.55;1.20;;;19.70;64.20;;;;;;5032283;28;20271;-62
2022/04/11 12:05:21;;;;;;;2.25;1.58;;;19.70;65.70;;;;;;5031910;28;20208;-63
2022/04/11 12:07:51;;;;;;;3.08;1.77;;;20.20;65.60;;;;;;5032166;28;20259;-63
2022/04/11 12:10:19;;;;;;;5.40;1.83;;;20.30;65.40;;;;;;5031769;28;20244;-63
2022/04/11 12:12:48;;;;;;;3.22;1.45;;;20.50;67.30;;;;;;5031239;28;20205;-62
2022/04/11 12:15:17;;;;;;;1.42;1.33;;;20.50;65.80;;;;;;5031797;28;20681;-63
2022/04/11 12:17:49;;;;;;;1.90;1.70;;;20.60;63.50;;;;;;5031555;28;20229;-63
2022/04/11 12:20:18;;;;;;;1.60;0.95;;;20.50;65.10;;;;;;5031533;28;20641;-62
2022/04/11 12:23:04;;;;;;;3.30;1.80;;;20.30;65.90;;;;;;5030915;28;20216;-62
2022/04/11 12:25:34;;;;;;;1.95;1.50;;;20.50;63.90;;;;;;5031115;28;20193;-63
2022/04/11 12:28:19;;;;;;;1.23;1.13;;;20.80;64.60;;;;;;5031488;28;20455;-63
2022/04/11 12:30:49;;;;;;;1.48;1.33;;;20.80;65.10;;;;;;5031433;28;20236;-63
2022/04/11 12:33:35;;;;;;;2.00;1.40;;;20.80;63.20;;;;;;5031009;28;20193;-62
2022/04/11 12:36:12;;;;;;;2.03;1.58;;;20.50;65.00;;;;;;5031595;28;20212;-62
2022/04/11 12:38:51;;;;;;;2.55;1.33;;;20.80;64.30;;;;;;5031236;28;20676;-62
2022/04/11 12:41:44;;;;;;;2.97;1.73;;;21.00;62.50;;;;;;4991557;28;1166102;-61
2022/04/11 12:44:14;;;;;;;2.05;1.50;;;20.90;61.40;;;;;;5029924;28;20185;-63
2022/04/11 12:46:44;;;;;;;5.03;1.65;;;21.40;62.10;;;;;;5031935;28;20251;-63
2022/04/11 12:49:15;;;;;;;1.63;1.40;;;21.20;61.30;;;;;;5032329;28;20192;-63
2022/04/11 12:51:43;;;;;;;2.38;1.20;;;21.60;62.00;;;;;;5032160;28;20674;-63
2022/04/11 12:54:13;;;;;;;1.80;1.40;;;21.30;60.80;;;;;;5031299;28;20192;-62
2022/04/11 12:56:44;;;;;;;1.88;1.30;;;21.10;60.90;;;;;;5031986;28;20193;-62
2022/04/11 12:59:27;;;;;;;1.63;1.30;;;20.80;60.80;;;;;;5031703;28;20200;-62
2022/04/11 13:02:04;;;;;;;1.88;1.30;;;20.30;61.40;;;;;;5031468;28;20231;-61
2022/04/11 13:04:34;;;;;;;1.92;1.10;;;20.50;62.30;;;;;;5031821;28;20727;-62
2022/04/11 13:07:01;;;;;;;2.38;1.50;;;20.80;62.60;;;;;;5031852;28;20216;-62
2022/04/11 13:09:30;;;;;;;3.00;1.50;;;20.90;61.30;;;;;;5031633;28;20188;-63